EZY7090 EDDB-EIDW
Flight info
| Callsign | EZY7090 |
|---|---|
| Flight time | N/A |
| Altitude | 24000 |
| Route | SUKIP4N SUKIP Y206 BUREL P203 HLZ/N0452F340 L980 SAS/N0452F360 DCT RAVLO Y70 OTBED L60 PENIL UL28 LELDO M145 BAGSO BAGSO4L |
| Aircraft | A320/M-SDE3FGHIRWY/LB1 |
Departure
| Time | 2026-02-21 06:59 |
|---|---|
| Airport | Berlin Brandenburg Airport (EDDB) |
Arrival
| Time | N/A |
|---|---|
| Airport | Dublin Airport (EIDW) |
| Time | Latitude | Longitude | Altitude | Speed | Heading |
|---|---|---|---|---|---|
| 2026-02-21 06:42 | 52.36255 | 13.50690 | 159 ft | 0 kts | 64° |
| 2026-02-21 06:42 | 52.36255 | 13.50689 | 158 ft | 0 kts | 64° |
| 2026-02-21 06:48 | 52.36253 | 13.50680 | 158 ft | 2 kts | 64° |
| 2026-02-21 06:48 | 52.36244 | 13.50651 | 158 ft | 3 kts | 64° |
| 2026-02-21 06:49 | 52.36236 | 13.50621 | 158 ft | 3 kts | 64° |
| 2026-02-21 06:49 | 52.36227 | 13.50592 | 158 ft | 3 kts | 68° |
| 2026-02-21 06:49 | 52.36221 | 13.50562 | 158 ft | 3 kts | 92° |
| 2026-02-21 06:49 | 52.36223 | 13.50543 | 158 ft | 2 kts | 154° |
| 2026-02-21 06:50 | 52.36234 | 13.50536 | 158 ft | 3 kts | 158° |
| 2026-02-21 06:50 | 52.36245 | 13.50528 | 158 ft | 0 kts | 158° |
| 2026-02-21 06:52 | 52.36241 | 13.50531 | 158 ft | 3 kts | 158° |
| 2026-02-21 06:52 | 52.36205 | 13.50554 | 158 ft | 9 kts | 159° |
| 2026-02-21 06:53 | 52.36126 | 13.50605 | 158 ft | 15 kts | 159° |
| 2026-02-21 06:53 | 52.36028 | 13.50667 | 158 ft | 15 kts | 159° |
| 2026-02-21 06:53 | 52.35928 | 13.50728 | 158 ft | 16 kts | 160° |
| 2026-02-21 06:53 | 52.35826 | 13.50790 | 158 ft | 16 kts | 159° |
| 2026-02-21 06:54 | 52.35748 | 13.50902 | 158 ft | 16 kts | 91° |
| 2026-02-21 06:54 | 52.35780 | 13.51058 | 158 ft | 13 kts | 68° |
| 2026-02-21 06:54 | 52.35812 | 13.51189 | 158 ft | 11 kts | 69° |
| 2026-02-21 06:54 | 52.35837 | 13.51300 | 158 ft | 10 kts | 69° |
| 2026-02-21 06:55 | 52.35859 | 13.51392 | 158 ft | 8 kts | 69° |
| 2026-02-21 06:55 | 52.35885 | 13.51500 | 158 ft | 15 kts | 68° |
| 2026-02-21 06:55 | 52.35935 | 13.51709 | 159 ft | 24 kts | 69° |
| 2026-02-21 06:55 | 52.35992 | 13.51950 | 159 ft | 21 kts | 69° |
| 2026-02-21 06:56 | 52.36025 | 13.52121 | 159 ft | 12 kts | 91° |
| 2026-02-21 06:56 | 52.35973 | 13.52202 | 159 ft | 11 kts | 160° |
| 2026-02-21 06:56 | 52.35944 | 13.52220 | 159 ft | 0 kts | 159° |
| 2026-02-21 06:57 | 52.35920 | 13.52235 | 132 ft | 7 kts | 159° |
| 2026-02-21 06:57 | 52.35848 | 13.52248 | 158 ft | 14 kts | 195° |
| 2026-02-21 06:58 | 52.35807 | 13.52167 | 158 ft | 0 kts | 248° |
| 2026-02-21 06:59 | 52.35721 | 13.51822 | 159 ft | 74 kts | 249° |
| 2026-02-21 06:59 | 52.35447 | 13.50663 | 157 ft | 142 kts | 249° |
| 2026-02-21 06:59 | 52.35021 | 13.48906 | 382 ft | 177 kts | 246° |
| 2026-02-21 06:59 | 52.34539 | 13.46884 | 834 ft | 209 kts | 242° |
| 2026-02-21 07:00 | 52.33780 | 13.44804 | 1779 ft | 225 kts | 240° |
| 2026-02-21 07:00 | 52.32836 | 13.42588 | 2323 ft | 239 kts | 237° |
| 2026-02-21 07:00 | 52.31840 | 13.40678 | 2842 ft | 203 kts | 234° |
| 2026-02-21 07:00 | 52.30894 | 13.39007 | 3386 ft | 205 kts | 234° |
| 2026-02-21 07:01 | 52.29924 | 13.37284 | 3941 ft | 208 kts | 234° |
| 2026-02-21 07:01 | 52.28943 | 13.35528 | 4491 ft | 209 kts | 233° |
| 2026-02-21 07:01 | 52.27963 | 13.33760 | 5048 ft | 210 kts | 234° |
| 2026-02-21 07:01 | 52.26982 | 13.31972 | 5600 ft | 212 kts | 233° |
| 2026-02-21 07:02 | 52.25994 | 13.30162 | 6162 ft | 214 kts | 233° |
| 2026-02-21 07:02 | 52.25002 | 13.28333 | 6668 ft | 216 kts | 234° |
| 2026-02-21 07:02 | 52.24160 | 13.26331 | 7205 ft | 214 kts | 250° |
| 2026-02-21 07:02 | 52.23598 | 13.24075 | 7739 ft | 215 kts | 251° |
| 2026-02-21 07:03 | 52.23033 | 13.21811 | 8293 ft | 217 kts | 250° |
| 2026-02-21 07:03 | 52.22467 | 13.19553 | 8832 ft | 220 kts | 250° |
| 2026-02-21 07:03 | 52.21870 | 13.17179 | 9419 ft | 232 kts | 250° |
| 2026-02-21 07:03 | 52.21242 | 13.14690 | 9982 ft | 243 kts | 250° |
| 2026-02-21 07:04 | 52.20583 | 13.12084 | 10512 ft | 254 kts | 250° |
| 2026-02-21 07:04 | 52.19899 | 13.09380 | 11017 ft | 263 kts | 250° |
| 2026-02-21 07:04 | 52.19172 | 13.06496 | 11226 ft | 287 kts | 249° |
| 2026-02-21 07:04 | 52.18383 | 13.03377 | 11391 ft | 309 kts | 249° |
| 2026-02-21 07:05 | 52.17551 | 13.00116 | 11817 ft | 320 kts | 249° |
| 2026-02-21 07:05 | 52.16690 | 12.96741 | 12468 ft | 324 kts | 250° |
| 2026-02-21 07:05 | 52.16058 | 12.93206 | 13132 ft | 327 kts | 258° |
| 2026-02-21 07:05 | 52.15556 | 12.89586 | 13816 ft | 330 kts | 258° |
| 2026-02-21 07:06 | 52.15043 | 12.85917 | 14415 ft | 334 kts | 258° |
| 2026-02-21 07:06 | 52.14520 | 12.82222 | 14999 ft | 337 kts | 258° |
| 2026-02-21 07:06 | 52.13990 | 12.78491 | 15587 ft | 341 kts | 258° |
| 2026-02-21 07:06 | 52.13493 | 12.74751 | 16146 ft | 343 kts | 263° |
| 2026-02-21 07:07 | 52.13457 | 12.70807 | 16723 ft | 346 kts | 277° |
| 2026-02-21 07:07 | 52.14025 | 12.67034 | 17257 ft | 351 kts | 290° |
| 2026-02-21 07:07 | 52.15181 | 12.63507 | 17818 ft | 357 kts | 303° |
| 2026-02-21 07:07 | 52.16870 | 12.60502 | 18348 ft | 364 kts | 315° |
| 2026-02-21 07:08 | 52.18763 | 12.57732 | 18812 ft | 367 kts | 315° |
| 2026-02-21 07:08 | 52.20663 | 12.54925 | 19261 ft | 370 kts | 314° |
| 2026-02-21 07:08 | 52.22574 | 12.52089 | 19712 ft | 373 kts | 314° |
| 2026-02-21 07:08 | 52.24333 | 12.48975 | 20155 ft | 373 kts | 304° |
| 2026-02-21 07:09 | 52.25705 | 12.45393 | 20600 ft | 373 kts | 294° |
| 2026-02-21 07:09 | 52.26649 | 12.41514 | 21056 ft | 373 kts | 284° |
| 2026-02-21 07:09 | 52.27251 | 12.37411 | 21530 ft | 374 kts | 281° |
| 2026-02-21 07:09 | 52.27832 | 12.33250 | 21992 ft | 376 kts | 281° |
| 2026-02-21 07:10 | 52.28421 | 12.29077 | 22443 ft | 378 kts | 281° |
| 2026-02-21 07:10 | 52.29016 | 12.24876 | 22887 ft | 381 kts | 281° |
| 2026-02-21 07:10 | 52.29611 | 12.20656 | 23325 ft | 383 kts | 281° |
| 2026-02-21 07:10 | 52.30205 | 12.16400 | 23716 ft | 385 kts | 281° |
| 2026-02-21 07:11 | 52.30798 | 12.12112 | 24064 ft | 388 kts | 281° |
| 2026-02-21 07:11 | 52.31393 | 12.07805 | 24405 ft | 390 kts | 281° |
| 2026-02-21 07:11 | 52.31979 | 12.03533 | 24732 ft | 392 kts | 281° |
| 2026-02-21 07:11 | 52.32577 | 11.99172 | 25063 ft | 394 kts | 281° |
| 2026-02-21 07:12 | 52.33173 | 11.94786 | 25409 ft | 396 kts | 281° |
| 2026-02-21 07:12 | 52.33774 | 11.90378 | 25754 ft | 398 kts | 281° |
| 2026-02-21 07:12 | 52.34340 | 11.85945 | 26079 ft | 399 kts | 277° |
| 2026-02-21 07:12 | 52.34553 | 11.81417 | 26395 ft | 401 kts | 271° |
| 2026-02-21 07:13 | 52.34650 | 11.76846 | 26715 ft | 403 kts | 271° |
| 2026-02-21 07:13 | 52.34747 | 11.72253 | 27034 ft | 405 kts | 271° |
| 2026-02-21 07:13 | 52.34840 | 11.67708 | 27337 ft | 407 kts | 271° |
| 2026-02-21 07:13 | 52.34935 | 11.63064 | 27639 ft | 409 kts | 271° |
| 2026-02-21 07:14 | 52.35030 | 11.58397 | 27927 ft | 411 kts | 271° |
| 2026-02-21 07:14 | 52.35125 | 11.53714 | 28210 ft | 413 kts | 271° |
| 2026-02-21 07:14 | 52.35220 | 11.49009 | 28494 ft | 415 kts | 271° |
| 2026-02-21 07:14 | 52.35311 | 11.44278 | 28766 ft | 417 kts | 272° |
| 2026-02-21 07:15 | 52.35398 | 11.39538 | 29054 ft | 418 kts | 272° |
| 2026-02-21 07:15 | 52.35483 | 11.34777 | 29336 ft | 420 kts | 272° |
| 2026-02-21 07:15 | 52.35565 | 11.30005 | 29672 ft | 420 kts | 272° |
| 2026-02-21 07:15 | 52.35643 | 11.25296 | 30054 ft | 419 kts | 272° |
| 2026-02-21 07:16 | 52.35721 | 11.20537 | 30370 ft | 418 kts | 272° |
| 2026-02-21 07:16 | 52.35798 | 11.15789 | 30683 ft | 417 kts | 272° |
| 2026-02-21 07:16 | 52.35875 | 11.11050 | 30995 ft | 417 kts | 272° |
| 2026-02-21 07:16 | 52.35952 | 11.06317 | 31320 ft | 416 kts | 273° |
| 2026-02-21 07:17 | 52.36027 | 11.01598 | 31637 ft | 415 kts | 273° |